sensor_id;sensor_type;location;lat;lon;timestamp;P1;durP1;ratioP1;P2;durP2;ratioP2
80569;SDS011;69923;50.828;4.400;2023-05-07T00:00:10;9.77;;;4.05;;
80569;SDS011;69923;50.828;4.400;2023-05-07T00:02:40;7.60;;;3.50;;
80569;SDS011;69923;50.828;4.400;2023-05-07T00:05:06;8.32;;;3.65;;
80569;SDS011;69923;50.828;4.400;2023-05-07T00:07:33;10.18;;;3.85;;
80569;SDS011;69923;50.828;4.400;2023-05-07T00:09:59;6.88;;;3.70;;
80569;SDS011;69923;50.828;4.400;2023-05-07T00:12:25;9.18;;;3.38;;
80569;SDS011;69923;50.828;4.400;2023-05-07T00:14:51;8.18;;;3.95;;
80569;SDS011;69923;50.828;4.400;2023-05-07T00:17:17;11.23;;;3.60;;
80569;SDS011;69923;50.828;4.400;2023-05-07T00:19:44;7.93;;;3.80;;
80569;SDS011;69923;50.828;4.400;2023-05-07T00:22:10;7.13;;;3.70;;
80569;SDS011;69923;50.828;4.400;2023-05-07T00:24:36;6.20;;;3.47;;
80569;SDS011;69923;50.828;4.400;2023-05-07T00:27:02;8.25;;;3.92;;
80569;SDS011;69923;50.828;4.400;2023-05-07T00:29:28;9.25;;;4.65;;
80569;SDS011;69923;50.828;4.400;2023-05-07T00:31:54;7.53;;;3.90;;
80569;SDS011;69923;50.828;4.400;2023-05-07T00:34:20;8.93;;;3.50;;
80569;SDS011;69923;50.828;4.400;2023-05-07T00:36:47;10.80;;;4.00;;
80569;SDS011;69923;50.828;4.400;2023-05-07T00:39:13;11.02;;;3.15;;
80569;SDS011;69923;50.828;4.400;2023-05-07T00:41:39;6.97;;;3.10;;
80569;SDS011;69923;50.828;4.400;2023-05-07T00:44:06;5.22;;;3.20;;
80569;SDS011;69923;50.828;4.400;2023-05-07T00:46:32;8.88;;;3.33;;
80569;SDS011;69923;50.828;4.400;2023-05-07T00:48:59;8.50;;;3.40;;
80569;SDS011;69923;50.828;4.400;2023-05-07T00:51:25;9.85;;;4.32;;
80569;SDS011;69923;50.828;4.400;2023-05-07T00:53:52;6.65;;;2.92;;
80569;SDS011;69923;50.828;4.400;2023-05-07T00:56:20;5.05;;;3.03;;
80569;SDS011;69923;50.828;4.400;2023-05-07T00:58:47;8.27;;;3.10;;
80569;SDS011;69923;50.828;4.400;2023-05-07T01:01:14;6.88;;;3.38;;
80569;SDS011;69923;50.828;4.400;2023-05-07T01:03:43;8.02;;;3.33;;
80569;SDS011;69923;50.828;4.400;2023-05-07T01:06:09;9.73;;;3.13;;
80569;SDS011;69923;50.828;4.400;2023-05-07T01:08:37;6.82;;;2.95;;
80569;SDS011;69923;50.828;4.400;2023-05-07T01:11:06;9.43;;;3.28;;
80569;SDS011;69923;50.828;4.400;2023-05-07T01:13:34;9.13;;;3.42;;
80569;SDS011;69923;50.828;4.400;2023-05-07T01:16:02;10.48;;;4.25;;
80569;SDS011;69923;50.828;4.400;2023-05-07T01:18:29;6.88;;;3.08;;
80569;SDS011;69923;50.828;4.400;2023-05-07T01:20:56;5.88;;;3.10;;
80569;SDS011;69923;50.828;4.400;2023-05-07T01:23:25;7.75;;;4.45;;
80569;SDS011;69923;50.828;4.400;2023-05-07T01:25:52;9.30;;;4.57;;
80569;SDS011;69923;50.828;4.400;2023-05-07T01:28:19;9.18;;;4.32;;
80569;SDS011;69923;50.828;4.400;2023-05-07T01:30:56;10.13;;;3.45;;
80569;SDS011;69923;50.828;4.400;2023-05-07T01:33:28;7.55;;;4.40;;
80569;SDS011;69923;50.828;4.400;2023-05-07T01:35:58;6.60;;;3.55;;
80569;SDS011;69923;50.828;4.400;2023-05-07T01:38:27;8.98;;;3.97;;
80569;SDS011;69923;50.828;4.400;2023-05-07T01:40:55;11.35;;;3.75;;
80569;SDS011;69923;50.828;4.400;2023-05-07T01:43:21;12.10;;;3.78;;
80569;SDS011;69923;50.828;4.400;2023-05-07T01:45:47;8.23;;;3.58;;
80569;SDS011;69923;50.828;4.400;2023-05-07T01:48:14;6.38;;;3.83;;
80569;SDS011;69923;50.828;4.400;2023-05-07T01:50:41;7.47;;;3.28;;
80569;SDS011;69923;50.828;4.400;2023-05-07T01:53:08;11.18;;;3.50;;
80569;SDS011;69923;50.828;4.400;2023-05-07T01:55:34;11.90;;;3.97;;
80569;SDS011;69923;50.828;4.400;2023-05-07T01:58:01;9.95;;;3.38;;
80569;SDS011;69923;50.828;4.400;2023-05-07T02:00:28;7.60;;;4.35;;
80569;SDS011;69923;50.828;4.400;2023-05-07T02:02:54;6.60;;;3.25;;
80569;SDS011;69923;50.828;4.400;2023-05-07T02:05:20;7.80;;;3.15;;
80569;SDS011;69923;50.828;4.400;2023-05-07T02:07:46;7.20;;;3.30;;
80569;SDS011;69923;50.828;4.400;2023-05-07T02:10:13;9.23;;;3.90;;
80569;SDS011;69923;50.828;4.400;2023-05-07T02:12:39;5.65;;;3.30;;
80569;SDS011;69923;50.828;4.400;2023-05-07T02:15:05;5.88;;;4.00;;
80569;SDS011;69923;50.828;4.400;2023-05-07T02:17:32;10.27;;;4.25;;
80569;SDS011;69923;50.828;4.400;2023-05-07T02:19:58;7.90;;;3.33;;
80569;SDS011;69923;50.828;4.400;2023-05-07T02:22:25;8.40;;;3.25;;
80569;SDS011;69923;50.828;4.400;2023-05-07T02:24:51;10.55;;;3.38;;
80569;SDS011;69923;50.828;4.400;2023-05-07T02:27:17;6.68;;;3.28;;
80569;SDS011;69923;50.828;4.400;2023-05-07T02:29:43;9.50;;;3.30;;
80569;SDS011;69923;50.828;4.400;2023-05-07T02:32:09;9.75;;;5.20;;
80569;SDS011;69923;50.828;4.400;2023-05-07T02:34:35;7.57;;;3.47;;
80569;SDS011;69923;50.828;4.400;2023-05-07T02:37:01;8.32;;;3.20;;
80569;SDS011;69923;50.828;4.400;2023-05-07T02:39:27;9.32;;;3.40;;
80569;SDS011;69923;50.828;4.400;2023-05-07T02:41:53;5.32;;;3.40;;
80569;SDS011;69923;50.828;4.400;2023-05-07T02:44:19;7.13;;;3.20;;
80569;SDS011;69923;50.828;4.400;2023-05-07T02:46:46;9.48;;;3.90;;
80569;SDS011;69923;50.828;4.400;2023-05-07T02:49:12;6.90;;;3.17;;
80569;SDS011;69923;50.828;4.400;2023-05-07T02:51:38;6.30;;;3.50;;
80569;SDS011;69923;50.828;4.400;2023-05-07T02:54:04;7.22;;;3.58;;
80569;SDS011;69923;50.828;4.400;2023-05-07T02:56:30;7.95;;;3.60;;
80569;SDS011;69923;50.828;4.400;2023-05-07T02:58:56;7.82;;;3.63;;
80569;SDS011;69923;50.828;4.400;2023-05-07T03:01:23;7.47;;;3.67;;
80569;SDS011;69923;50.828;4.400;2023-05-07T03:03:49;8.60;;;3.55;;
80569;SDS011;69923;50.828;4.400;2023-05-07T03:06:15;7.97;;;3.10;;
80569;SDS011;69923;50.828;4.400;2023-05-07T03:08:41;6.97;;;3.42;;
80569;SDS011;69923;50.828;4.400;2023-05-07T03:11:08;9.07;;;3.72;;
80569;SDS011;69923;50.828;4.400;2023-05-07T03:13:34;5.60;;;3.35;;
80569;SDS011;69923;50.828;4.400;2023-05-07T03:16:00;11.60;;;3.58;;
80569;SDS011;69923;50.828;4.400;2023-05-07T03:18:26;7.57;;;3.35;;
80569;SDS011;69923;50.828;4.400;2023-05-07T03:20:52;8.68;;;3.05;;
80569;SDS011;69923;50.828;4.400;2023-05-07T03:23:18;7.70;;;3.38;;
80569;SDS011;69923;50.828;4.400;2023-05-07T03:25:45;7.38;;;3.50;;
80569;SDS011;69923;50.828;4.400;2023-05-07T03:28:11;7.82;;;3.67;;
80569;SDS011;69923;50.828;4.400;2023-05-07T03:30:37;7.90;;;3.35;;
80569;SDS011;69923;50.828;4.400;2023-05-07T03:33:03;5.60;;;2.80;;
80569;SDS011;69923;50.828;4.400;2023-05-07T03:35:29;7.55;;;3.58;;
80569;SDS011;69923;50.828;4.400;2023-05-07T03:37:55;5.10;;;3.15;;
80569;SDS011;69923;50.828;4.400;2023-05-07T03:40:21;7.88;;;3.53;;
80569;SDS011;69923;50.828;4.400;2023-05-07T03:42:47;8.77;;;3.33;;
80569;SDS011;69923;50.828;4.400;2023-05-07T03:45:14;6.85;;;3.30;;
80569;SDS011;69923;50.828;4.400;2023-05-07T03:47:40;10.15;;;4.03;;
80569;SDS011;69923;50.828;4.400;2023-05-07T03:50:06;10.35;;;3.90;;
80569;SDS011;69923;50.828;4.400;2023-05-07T03:52:33;6.75;;;3.13;;
80569;SDS011;69923;50.828;4.400;2023-05-07T03:54:59;8.27;;;3.58;;
80569;SDS011;69923;50.828;4.400;2023-05-07T03:57:25;7.70;;;3.78;;
80569;SDS011;69923;50.828;4.400;2023-05-07T03:59:51;7.45;;;3.38;;
80569;SDS011;69923;50.828;4.400;2023-05-07T04:02:17;6.32;;;3.42;;
80569;SDS011;69923;50.828;4.400;2023-05-07T04:04:43;8.88;;;3.95;;
80569;SDS011;69923;50.828;4.400;2023-05-07T04:07:09;7.80;;;3.65;;
80569;SDS011;69923;50.828;4.400;2023-05-07T04:09:36;7.43;;;3.67;;
80569;SDS011;69923;50.828;4.400;2023-05-07T04:12:02;5.70;;;3.20;;
80569;SDS011;69923;50.828;4.400;2023-05-07T04:14:28;7.70;;;3.67;;
80569;SDS011;69923;50.828;4.400;2023-05-07T04:16:57;9.85;;;3.63;;
80569;SDS011;69923;50.828;4.400;2023-05-07T04:19:24;8.55;;;3.53;;
80569;SDS011;69923;50.828;4.400;2023-05-07T04:21:50;8.00;;;3.78;;
80569;SDS011;69923;50.828;4.400;2023-05-07T04:24:16;10.02;;;3.78;;
80569;SDS011;69923;50.828;4.400;2023-05-07T04:26:42;6.80;;;4.15;;
80569;SDS011;69923;50.828;4.400;2023-05-07T04:29:09;8.02;;;3.40;;
80569;SDS011;69923;50.828;4.400;2023-05-07T04:31:35;8.23;;;4.13;;
80569;SDS011;69923;50.828;4.400;2023-05-07T04:34:01;8.63;;;3.13;;
80569;SDS011;69923;50.828;4.400;2023-05-07T04:36:27;9.02;;;3.15;;
80569;SDS011;69923;50.828;4.400;2023-05-07T04:38:54;5.85;;;3.38;;
80569;SDS011;69923;50.828;4.400;2023-05-07T04:41:20;8.70;;;3.92;;
80569;SDS011;69923;50.828;4.400;2023-05-07T04:43:46;8.95;;;3.60;;
80569;SDS011;69923;50.828;4.400;2023-05-07T04:46:12;6.35;;;3.40;;
80569;SDS011;69923;50.828;4.400;2023-05-07T04:48:38;11.65;;;4.15;;
80569;SDS011;69923;50.828;4.400;2023-05-07T04:51:04;8.90;;;3.65;;
80569;SDS011;69923;50.828;4.400;2023-05-07T04:53:31;11.38;;;3.95;;
80569;SDS011;69923;50.828;4.400;2023-05-07T04:55:57;8.80;;;3.50;;
80569;SDS011;69923;50.828;4.400;2023-05-07T04:58:23;11.60;;;4.18;;
80569;SDS011;69923;50.828;4.400;2023-05-07T05:00:50;11.18;;;3.97;;
80569;SDS011;69923;50.828;4.400;2023-05-07T05:03:16;7.20;;;3.20;;
80569;SDS011;69923;50.828;4.400;2023-05-07T05:05:43;7.07;;;3.53;;
80569;SDS011;69923;50.828;4.400;2023-05-07T05:08:09;7.65;;;3.17;;
80569;SDS011;69923;50.828;4.400;2023-05-07T05:10:35;6.00;;;3.25;;
80569;SDS011;69923;50.828;4.400;2023-05-07T05:13:01;7.53;;;4.22;;
80569;SDS011;69923;50.828;4.400;2023-05-07T05:15:27;5.90;;;3.15;;
80569;SDS011;69923;50.828;4.400;2023-05-07T05:17:53;9.48;;;3.92;;
80569;SDS011;69923;50.828;4.400;2023-05-07T05:20:20;5.68;;;3.42;;
80569;SDS011;69923;50.828;4.400;2023-05-07T05:22:46;8.13;;;3.38;;
80569;SDS011;69923;50.828;4.400;2023-05-07T05:25:12;6.43;;;3.30;;
80569;SDS011;69923;50.828;4.400;2023-05-07T05:27:38;7.53;;;3.28;;
80569;SDS011;69923;50.828;4.400;2023-05-07T05:30:04;8.35;;;3.50;;
80569;SDS011;69923;50.828;4.400;2023-05-07T05:32:31;8.38;;;3.50;;
80569;SDS011;69923;50.828;4.400;2023-05-07T05:34:58;6.47;;;3.22;;
80569;SDS011;69923;50.828;4.400;2023-05-07T05:37:24;9.55;;;3.22;;
80569;SDS011;69923;50.828;4.400;2023-05-07T05:39:50;11.10;;;3.75;;
80569;SDS011;69923;50.828;4.400;2023-05-07T05:42:17;7.13;;;3.08;;
80569;SDS011;69923;50.828;4.400;2023-05-07T05:44:43;7.90;;;3.70;;
80569;SDS011;69923;50.828;4.400;2023-05-07T05:47:09;9.10;;;3.00;;
80569;SDS011;69923;50.828;4.400;2023-05-07T05:49:36;6.65;;;3.22;;
80569;SDS011;69923;50.828;4.400;2023-05-07T05:52:02;6.75;;;3.38;;
80569;SDS011;69923;50.828;4.400;2023-05-07T05:54:28;7.80;;;4.00;;
80569;SDS011;69923;50.828;4.400;2023-05-07T05:56:54;10.57;;;3.40;;
80569;SDS011;69923;50.828;4.400;2023-05-07T05:59:20;6.47;;;3.08;;
80569;SDS011;69923;50.828;4.400;2023-05-07T06:01:47;9.77;;;3.38;;
80569;SDS011;69923;50.828;4.400;2023-05-07T06:04:13;7.50;;;3.25;;
80569;SDS011;69923;50.828;4.400;2023-05-07T06:06:39;11.70;;;4.40;;
80569;SDS011;69923;50.828;4.400;2023-05-07T06:09:05;14.63;;;4.82;;
80569;SDS011;69923;50.828;4.400;2023-05-07T06:11:31;6.88;;;2.97;;
80569;SDS011;69923;50.828;4.400;2023-05-07T06:13:57;7.53;;;2.95;;
80569;SDS011;69923;50.828;4.400;2023-05-07T06:16:27;6.63;;;3.08;;
80569;SDS011;69923;50.828;4.400;2023-05-07T06:18:53;7.25;;;3.13;;
80569;SDS011;69923;50.828;4.400;2023-05-07T06:21:19;9.85;;;3.92;;
80569;SDS011;69923;50.828;4.400;2023-05-07T06:23:45;5.97;;;3.08;;
80569;SDS011;69923;50.828;4.400;2023-05-07T06:26:11;9.20;;;3.53;;
80569;SDS011;69923;50.828;4.400;2023-05-07T06:28:37;8.23;;;3.67;;
80569;SDS011;69923;50.828;4.400;2023-05-07T06:33:44;7.70;;;3.58;;
80569;SDS011;69923;50.828;4.400;2023-05-07T06:36:10;13.63;;;3.80;;
80569;SDS011;69923;50.828;4.400;2023-05-07T06:38:36;8.32;;;3.00;;
80569;SDS011;69923;50.828;4.400;2023-05-07T06:41:02;9.35;;;3.75;;
80569;SDS011;69923;50.828;4.400;2023-05-07T06:43:28;7.28;;;3.53;;
80569;SDS011;69923;50.828;4.400;2023-05-07T06:45:54;8.00;;;4.50;;
80569;SDS011;69923;50.828;4.400;2023-05-07T06:48:20;8.75;;;4.38;;
80569;SDS011;69923;50.828;4.400;2023-05-07T06:50:47;9.18;;;3.67;;
80569;SDS011;69923;50.828;4.400;2023-05-07T06:53:13;8.45;;;3.72;;
80569;SDS011;69923;50.828;4.400;2023-05-07T06:55:39;8.77;;;4.32;;
80569;SDS011;69923;50.828;4.400;2023-05-07T06:58:06;8.43;;;3.78;;
80569;SDS011;69923;50.828;4.400;2023-05-07T07:00:32;7.55;;;3.42;;
80569;SDS011;69923;50.828;4.400;2023-05-07T07:02:58;7.47;;;4.25;;
80569;SDS011;69923;50.828;4.400;2023-05-07T07:05:25;8.90;;;4.10;;
80569;SDS011;69923;50.828;4.400;2023-05-07T07:07:51;14.15;;;4.30;;
80569;SDS011;69923;50.828;4.400;2023-05-07T07:10:21;11.80;;;5.30;;
80569;SDS011;69923;50.828;4.400;2023-05-07T07:12:48;9.57;;;5.10;;
80569;SDS011;69923;50.828;4.400;2023-05-07T07:15:15;11.07;;;5.00;;
80569;SDS011;69923;50.828;4.400;2023-05-07T07:17:41;8.93;;;4.43;;
80569;SDS011;69923;50.828;4.400;2023-05-07T07:20:07;12.25;;;4.88;;
80569;SDS011;69923;50.828;4.400;2023-05-07T07:22:35;10.00;;;4.45;;
80569;SDS011;69923;50.828;4.400;2023-05-07T07:25:01;12.20;;;5.43;;
80569;SDS011;69923;50.828;4.400;2023-05-07T07:27:27;9.10;;;4.35;;
80569;SDS011;69923;50.828;4.400;2023-05-07T07:29:53;10.15;;;4.70;;
80569;SDS011;69923;50.828;4.400;2023-05-07T07:32:19;10.93;;;5.70;;
80569;SDS011;69923;50.828;4.400;2023-05-07T07:34:46;14.18;;;5.93;;
80569;SDS011;69923;50.828;4.400;2023-05-07T07:37:12;9.43;;;4.85;;
80569;SDS011;69923;50.828;4.400;2023-05-07T07:39:38;10.30;;;5.45;;
80569;SDS011;69923;50.828;4.400;2023-05-07T07:42:04;9.30;;;5.10;;
80569;SDS011;69923;50.828;4.400;2023-05-07T07:44:30;9.20;;;4.45;;
80569;SDS011;69923;50.828;4.400;2023-05-07T07:46:56;12.25;;;5.60;;
80569;SDS011;69923;50.828;4.400;2023-05-07T07:49:22;8.48;;;5.10;;
80569;SDS011;69923;50.828;4.400;2023-05-07T07:51:49;7.40;;;4.75;;
80569;SDS011;69923;50.828;4.400;2023-05-07T07:54:16;10.48;;;5.63;;
80569;SDS011;69923;50.828;4.400;2023-05-07T07:56:42;10.30;;;5.40;;
80569;SDS011;69923;50.828;4.400;2023-05-07T07:59:08;8.73;;;4.70;;
80569;SDS011;69923;50.828;4.400;2023-05-07T08:01:34;12.13;;;5.97;;
80569;SDS011;69923;50.828;4.400;2023-05-07T08:04:00;11.65;;;5.25;;
80569;SDS011;69923;50.828;4.400;2023-05-07T08:06:28;11.02;;;5.03;;
80569;SDS011;69923;50.828;4.400;2023-05-07T08:08:54;14.38;;;5.35;;
80569;SDS011;69923;50.828;4.400;2023-05-07T08:11:21;12.57;;;5.60;;
80569;SDS011;69923;50.828;4.400;2023-05-07T08:13:47;10.80;;;5.80;;
80569;SDS011;69923;50.828;4.400;2023-05-07T08:16:13;9.05;;;4.25;;
80569;SDS011;69923;50.828;4.400;2023-05-07T08:18:40;10.30;;;5.75;;
80569;SDS011;69923;50.828;4.400;2023-05-07T08:21:06;10.55;;;6.22;;
80569;SDS011;69923;50.828;4.400;2023-05-07T08:23:32;8.18;;;5.20;;
80569;SDS011;69923;50.828;4.400;2023-05-07T08:25:59;10.63;;;5.05;;
80569;SDS011;69923;50.828;4.400;2023-05-07T08:28:25;10.93;;;5.60;;
80569;SDS011;69923;50.828;4.400;2023-05-07T08:30:52;11.27;;;4.88;;
80569;SDS011;69923;50.828;4.400;2023-05-07T08:33:18;8.95;;;4.72;;
80569;SDS011;69923;50.828;4.400;2023-05-07T08:35:44;10.90;;;5.05;;
80569;SDS011;69923;50.828;4.400;2023-05-07T08:38:10;13.48;;;5.22;;
80569;SDS011;69923;50.828;4.400;2023-05-07T08:40:38;10.95;;;5.57;;
80569;SDS011;69923;50.828;4.400;2023-05-07T08:43:06;12.95;;;6.28;;
80569;SDS011;69923;50.828;4.400;2023-05-07T08:45:33;8.77;;;5.20;;
80569;SDS011;69923;50.828;4.400;2023-05-07T08:48:00;8.48;;;4.75;;
80569;SDS011;69923;50.828;4.400;2023-05-07T08:50:28;9.23;;;4.35;;
80569;SDS011;69923;50.828;4.400;2023-05-07T08:52:54;9.10;;;4.47;;
80569;SDS011;69923;50.828;4.400;2023-05-07T08:55:22;9.73;;;4.90;;
80569;SDS011;69923;50.828;4.400;2023-05-07T08:57:50;11.38;;;4.63;;
80569;SDS011;69923;50.828;4.400;2023-05-07T09:00:18;7.88;;;4.72;;
80569;SDS011;69923;50.828;4.400;2023-05-07T09:02:44;11.10;;;4.95;;
80569;SDS011;69923;50.828;4.400;2023-05-07T09:05:10;9.50;;;4.88;;
80569;SDS011;69923;50.828;4.400;2023-05-07T09:07:36;8.93;;;5.18;;
80569;SDS011;69923;50.828;4.400;2023-05-07T09:10:03;8.65;;;4.22;;
80569;SDS011;69923;50.828;4.400;2023-05-07T09:12:30;8.02;;;5.15;;
80569;SDS011;69923;50.828;4.400;2023-05-07T09:14:56;8.90;;;4.85;;
80569;SDS011;69923;50.828;4.400;2023-05-07T09:17:23;11.88;;;5.38;;
80569;SDS011;69923;50.828;4.400;2023-05-07T09:19:50;8.18;;;4.28;;
80569;SDS011;69923;50.828;4.400;2023-05-07T09:22:16;10.27;;;4.38;;
80569;SDS011;69923;50.828;4.400;2023-05-07T09:24:48;9.75;;;4.97;;
80569;SDS011;69923;50.828;4.400;2023-05-07T09:27:16;9.15;;;4.50;;
80569;SDS011;69923;50.828;4.400;2023-05-07T09:29:43;9.40;;;5.50;;
80569;SDS011;69923;50.828;4.400;2023-05-07T09:32:09;9.20;;;4.93;;
80569;SDS011;69923;50.828;4.400;2023-05-07T09:34:36;10.60;;;4.50;;
80569;SDS011;69923;50.828;4.400;2023-05-07T09:37:03;12.27;;;4.00;;
80569;SDS011;69923;50.828;4.400;2023-05-07T09:42:05;9.05;;;4.50;;
80569;SDS011;69923;50.828;4.400;2023-05-07T09:44:32;7.45;;;3.83;;
80569;SDS011;69923;50.828;4.400;2023-05-07T09:46:59;8.40;;;4.40;;
80569;SDS011;69923;50.828;4.400;2023-05-07T09:49:29;6.07;;;3.53;;
80569;SDS011;69923;50.828;4.400;2023-05-07T09:51:58;7.65;;;4.38;;
80569;SDS011;69923;50.828;4.400;2023-05-07T09:54:26;11.80;;;4.97;;
80569;SDS011;69923;50.828;4.400;2023-05-07T09:56:55;7.18;;;3.38;;
80569;SDS011;69923;50.828;4.400;2023-05-07T09:59:22;5.78;;;3.10;;
80569;SDS011;69923;50.828;4.400;2023-05-07T10:01:50;9.02;;;4.32;;
80569;SDS011;69923;50.828;4.400;2023-05-07T10:04:21;10.57;;;4.72;;
80569;SDS011;69923;50.828;4.400;2023-05-07T10:06:48;7.70;;;3.83;;
80569;SDS011;69923;50.828;4.400;2023-05-07T10:09:14;7.85;;;4.07;;
80569;SDS011;69923;50.828;4.400;2023-05-07T10:11:41;6.85;;;3.72;;
80569;SDS011;69923;50.828;4.400;2023-05-07T10:14:08;8.32;;;3.80;;
80569;SDS011;69923;50.828;4.400;2023-05-07T10:16:35;7.35;;;3.97;;
80569;SDS011;69923;50.828;4.400;2023-05-07T10:19:06;9.48;;;3.58;;
80569;SDS011;69923;50.828;4.400;2023-05-07T10:21:35;6.10;;;3.22;;
80569;SDS011;69923;50.828;4.400;2023-05-07T10:24:07;6.50;;;3.60;;
80569;SDS011;69923;50.828;4.400;2023-05-07T10:26:39;8.93;;;3.80;;
80569;SDS011;69923;50.828;4.400;2023-05-07T10:29:15;5.75;;;2.85;;
80569;SDS011;69923;50.828;4.400;2023-05-07T10:31:55;6.68;;;2.83;;
80569;SDS011;69923;50.828;4.400;2023-05-07T10:34:28;6.78;;;3.00;;
80569;SDS011;69923;50.828;4.400;2023-05-07T10:37:00;5.32;;;3.58;;
80569;SDS011;69923;50.828;4.400;2023-05-07T10:39:27;6.15;;;3.53;;
80569;SDS011;69923;50.828;4.400;2023-05-07T10:41:54;6.97;;;3.78;;
80569;SDS011;69923;50.828;4.400;2023-05-07T10:44:27;6.22;;;3.40;;
80569;SDS011;69923;50.828;4.400;2023-05-07T10:47:10;8.43;;;3.45;;
80569;SDS011;69923;50.828;4.400;2023-05-07T10:52:11;6.20;;;3.55;;
80569;SDS011;69923;50.828;4.400;2023-05-07T10:54:45;6.65;;;2.80;;
80569;SDS011;69923;50.828;4.400;2023-05-07T10:59:56;10.20;;;3.92;;
80569;SDS011;69923;50.828;4.400;2023-05-07T11:02:22;6.35;;;2.65;;
80569;SDS011;69923;50.828;4.400;2023-05-07T11:05:18;6.80;;;3.03;;
80569;SDS011;69923;50.828;4.400;2023-05-07T11:07:53;5.43;;;2.88;;
80569;SDS011;69923;50.828;4.400;2023-05-07T11:10:20;7.07;;;2.92;;
80569;SDS011;69923;50.828;4.400;2023-05-07T11:15:14;5.45;;;3.42;;
80569;SDS011;69923;50.828;4.400;2023-05-07T11:17:58;9.50;;;3.17;;
80569;SDS011;69923;50.828;4.400;2023-05-07T11:20:44;6.20;;;3.30;;
80569;SDS011;69923;50.828;4.400;2023-05-07T11:28:30;4.07;;;2.03;;
80569;SDS011;69923;50.828;4.400;2023-05-07T11:33:27;5.53;;;2.47;;
80569;SDS011;69923;50.828;4.400;2023-05-07T11:35:55;5.45;;;2.60;;
80569;SDS011;69923;50.828;4.400;2023-05-07T11:38:22;5.90;;;3.42;;
80569;SDS011;69923;50.828;4.400;2023-05-07T11:40:57;9.20;;;3.50;;
80569;SDS011;69923;50.828;4.400;2023-05-07T11:43:29;6.63;;;3.50;;
80569;SDS011;69923;50.828;4.400;2023-05-07T11:46:04;6.35;;;3.10;;
80569;SDS011;69923;50.828;4.400;2023-05-07T11:48:37;7.18;;;2.63;;
80569;SDS011;69923;50.828;4.400;2023-05-07T11:51:04;5.28;;;2.58;;
80569;SDS011;69923;50.828;4.400;2023-05-07T11:53:37;7.00;;;2.40;;
80569;SDS011;69923;50.828;4.400;2023-05-07T11:56:11;5.53;;;2.45;;
80569;SDS011;69923;50.828;4.400;2023-05-07T11:58:39;5.55;;;2.28;;
80569;SDS011;69923;50.828;4.400;2023-05-07T12:01:10;6.70;;;2.33;;
80569;SDS011;69923;50.828;4.400;2023-05-07T12:03:39;6.45;;;3.97;;
80569;SDS011;69923;50.828;4.400;2023-05-07T12:06:10;9.60;;;3.10;;
80569;SDS011;69923;50.828;4.400;2023-05-07T12:08:38;5.70;;;2.55;;
80569;SDS011;69923;50.828;4.400;2023-05-07T12:11:16;5.70;;;2.80;;
80569;SDS011;69923;50.828;4.400;2023-05-07T12:13:48;5.05;;;2.42;;
80569;SDS011;69923;50.828;4.400;2023-05-07T12:16:14;4.30;;;2.85;;
80569;SDS011;69923;50.828;4.400;2023-05-07T12:18:41;6.78;;;3.05;;
80569;SDS011;69923;50.828;4.400;2023-05-07T12:21:07;4.85;;;2.53;;
80569;SDS011;69923;50.828;4.400;2023-05-07T12:23:35;3.85;;;2.20;;
80569;SDS011;69923;50.828;4.400;2023-05-07T12:26:03;6.53;;;3.35;;
80569;SDS011;69923;50.828;4.400;2023-05-07T12:28:29;6.65;;;3.10;;
80569;SDS011;69923;50.828;4.400;2023-05-07T12:30:56;4.60;;;3.17;;
80569;SDS011;69923;50.828;4.400;2023-05-07T12:33:26;4.80;;;2.55;;
80569;SDS011;69923;50.828;4.400;2023-05-07T12:35:54;5.55;;;2.58;;
80569;SDS011;69923;50.828;4.400;2023-05-07T12:38:21;4.43;;;2.83;;
80569;SDS011;69923;50.828;4.400;2023-05-07T12:40:48;4.75;;;2.97;;
80569;SDS011;69923;50.828;4.400;2023-05-07T12:43:24;4.03;;;2.40;;
80569;SDS011;69923;50.828;4.400;2023-05-07T12:45:53;5.25;;;2.80;;
80569;SDS011;69923;50.828;4.400;2023-05-07T12:48:21;6.72;;;3.08;;
80569;SDS011;69923;50.828;4.400;2023-05-07T12:50:51;5.88;;;2.60;;
80569;SDS011;69923;50.828;4.400;2023-05-07T12:53:22;4.30;;;2.67;;
80569;SDS011;69923;50.828;4.400;2023-05-07T12:55:54;4.75;;;2.63;;
80569;SDS011;69923;50.828;4.400;2023-05-07T13:00:54;5.28;;;2.83;;
80569;SDS011;69923;50.828;4.400;2023-05-07T13:06:02;6.10;;;2.72;;
80569;SDS011;69923;50.828;4.400;2023-05-07T13:11:07;6.97;;;3.60;;
80569;SDS011;69923;50.828;4.400;2023-05-07T13:13:35;5.22;;;3.53;;
80569;SDS011;69923;50.828;4.400;2023-05-07T13:16:04;9.52;;;4.50;;
80569;SDS011;69923;50.828;4.400;2023-05-07T13:18:31;9.00;;;5.20;;
80569;SDS011;69923;50.828;4.400;2023-05-07T13:20:58;9.40;;;5.07;;
80569;SDS011;69923;50.828;4.400;2023-05-07T13:23:25;7.55;;;4.03;;
80569;SDS011;69923;50.828;4.400;2023-05-07T13:25:52;7.15;;;4.43;;
80569;SDS011;69923;50.828;4.400;2023-05-07T13:28:21;7.88;;;5.05;;
80569;SDS011;69923;50.828;4.400;2023-05-07T13:30:48;9.30;;;5.20;;
80569;SDS011;69923;50.828;4.400;2023-05-07T13:33:16;11.48;;;6.63;;
80569;SDS011;69923;50.828;4.400;2023-05-07T13:35:43;10.73;;;5.68;;
80569;SDS011;69923;50.828;4.400;2023-05-07T13:38:09;10.60;;;6.30;;
80569;SDS011;69923;50.828;4.400;2023-05-07T13:40:35;10.30;;;6.18;;
80569;SDS011;69923;50.828;4.400;2023-05-07T13:43:02;9.13;;;6.38;;
80569;SDS011;69923;50.828;4.400;2023-05-07T13:45:28;11.35;;;6.95;;
80569;SDS011;69923;50.828;4.400;2023-05-07T13:47:56;11.57;;;6.75;;
80569;SDS011;69923;50.828;4.400;2023-05-07T13:50:22;10.30;;;7.03;;
80569;SDS011;69923;50.828;4.400;2023-05-07T13:52:48;11.50;;;7.18;;
80569;SDS011;69923;50.828;4.400;2023-05-07T13:55:17;15.95;;;8.00;;
80569;SDS011;69923;50.828;4.400;2023-05-07T13:57:46;13.65;;;7.53;;
80569;SDS011;69923;50.828;4.400;2023-05-07T14:00:13;11.43;;;7.50;;
80569;SDS011;69923;50.828;4.400;2023-05-07T14:02:41;10.95;;;7.03;;
80569;SDS011;69923;50.828;4.400;2023-05-07T14:05:07;14.02;;;7.22;;
80569;SDS011;69923;50.828;4.400;2023-05-07T14:07:34;12.90;;;8.35;;
80569;SDS011;69923;50.828;4.400;2023-05-07T14:10:01;11.45;;;7.50;;
80569;SDS011;69923;50.828;4.400;2023-05-07T14:12:27;13.02;;;7.40;;
80569;SDS011;69923;50.828;4.400;2023-05-07T14:14:53;12.35;;;7.57;;
80569;SDS011;69923;50.828;4.400;2023-05-07T14:17:19;14.02;;;7.85;;
80569;SDS011;69923;50.828;4.400;2023-05-07T14:19:48;10.85;;;6.45;;
80569;SDS011;69923;50.828;4.400;2023-05-07T14:22:14;12.43;;;6.97;;
80569;SDS011;69923;50.828;4.400;2023-05-07T14:24:40;10.38;;;6.90;;
80569;SDS011;69923;50.828;4.400;2023-05-07T14:27:06;12.63;;;7.80;;
80569;SDS011;69923;50.828;4.400;2023-05-07T14:29:32;12.98;;;8.05;;
80569;SDS011;69923;50.828;4.400;2023-05-07T14:32:00;12.45;;;8.30;;
80569;SDS011;69923;50.828;4.400;2023-05-07T14:34:27;14.57;;;8.63;;
80569;SDS011;69923;50.828;4.400;2023-05-07T14:36:53;13.70;;;8.10;;
80569;SDS011;69923;50.828;4.400;2023-05-07T14:39:20;11.75;;;7.57;;
80569;SDS011;69923;50.828;4.400;2023-05-07T14:41:46;13.15;;;7.55;;
80569;SDS011;69923;50.828;4.400;2023-05-07T14:44:13;14.75;;;8.10;;
80569;SDS011;69923;50.828;4.400;2023-05-07T14:46:39;14.10;;;8.48;;
80569;SDS011;69923;50.828;4.400;2023-05-07T14:49:05;11.45;;;6.68;;
80569;SDS011;69923;50.828;4.400;2023-05-07T14:51:33;17.33;;;8.63;;
80569;SDS011;69923;50.828;4.400;2023-05-07T14:53:59;14.07;;;8.18;;
80569;SDS011;69923;50.828;4.400;2023-05-07T14:56:26;13.18;;;6.97;;
80569;SDS011;69923;50.828;4.400;2023-05-07T14:58:52;9.07;;;5.93;;
80569;SDS011;69923;50.828;4.400;2023-05-07T15:01:20;13.85;;;7.65;;
80569;SDS011;69923;50.828;4.400;2023-05-07T15:03:46;11.85;;;6.50;;
80569;SDS011;69923;50.828;4.400;2023-05-07T15:06:12;14.80;;;7.78;;
80569;SDS011;69923;50.828;4.400;2023-05-07T15:08:38;13.35;;;7.55;;
80569;SDS011;69923;50.828;4.400;2023-05-07T15:11:04;15.70;;;7.75;;